Time;durP1;ratioP1;P1;durP2;ratioP2;P2;SDS_P1;SDS_P2;PMS_P1;PMS_P2;Temp;Humidity;BMP_temperature;BMP_pressure;BME280_temperature;BME280_humidity;BME280_pressure;Samples;Min_cycle;Max_cycle;Signal;HPM_P1;HPM_P2
2022/10/14 00:01:36;;;;;;;21.30;8.93;;;;;;;11.70;100.00;100975.88;5998177;28;20478;-67
2022/10/14 00:04:32;;;;;;;20.87;9.47;;;;;;;11.58;100.00;100966.38;5999714;28;20062;-66
2022/10/14 00:07:27;;;;;;;22.45;9.18;;;;;;;11.52;100.00;100955.53;6003000;28;20081;-66
2022/10/14 00:10:23;;;;;;;23.53;10.80;;;;;;;11.51;100.00;100965.31;6003161;28;20077;-66
2022/10/14 00:13:18;;;;;;;24.77;10.07;;;;;;;11.42;100.00;100960.88;6003385;28;20045;-66
2022/10/14 00:16:16;;;;;;;20.97;10.13;;;;;;;11.37;100.00;100973.75;6003347;28;20658;-65
2022/10/14 00:19:12;;;;;;;25.80;10.77;;;;;;;11.40;100.00;100976.13;6002396;28;20274;-65
2022/10/14 00:22:08;;;;;;;22.48;10.32;;;;;;;11.44;100.00;100964.19;6002298;28;20045;-65
2022/10/14 00:25:03;;;;;;;25.03;10.13;;;;;;;11.45;100.00;100965.88;6003219;28;20043;-65
2022/10/14 00:28:02;;;;;;;22.80;10.80;;;;;;;11.49;100.00;100964.63;6002630;28;20070;-65
2022/10/14 00:30:59;;;;;;;23.58;10.13;;;;;;;11.39;100.00;100961.16;6002533;28;20039;-66
2022/10/14 00:33:54;;;;;;;28.98;11.05;;;;;;;11.35;100.00;100947.34;6002939;28;20070;-65
2022/10/14 00:36:49;;;;;;;23.50;11.00;;;;;;;11.50;100.00;100962.78;6003155;28;20061;-66
2022/10/14 00:39:45;;;;;;;28.77;12.27;;;;;;;11.41;100.00;100947.75;6002770;28;20042;-65
2022/10/14 00:42:40;;;;;;;41.37;12.30;;;;;;;11.42;100.00;100942.28;6001988;28;20026;-66
2022/10/14 00:45:35;;;;;;;29.00;12.43;;;;;;;11.50;100.00;100958.31;6002863;28;20110;-65
2022/10/14 00:48:31;;;;;;;27.65;11.98;;;;;;;11.43;100.00;100943.13;6002513;28;20301;-65
2022/10/14 00:51:26;;;;;;;25.23;12.77;;;;;;;11.44;100.00;100947.47;6001978;28;20360;-66
2022/10/14 00:54:24;;;;;;;28.60;11.63;;;;;;;11.58;100.00;100952.25;6017403;28;20493;-66
2022/10/14 00:57:20;;;;;;;25.70;11.60;;;;;;;11.58;100.00;100952.25;6001000;28;20026;-66
2022/10/14 01:00:18;;;;;;;29.20;11.55;;;;;;;11.56;100.00;100952.44;6000829;28;20042;-66
2022/10/14 01:03:21;;;;;;;29.20;12.15;;;;;;;11.49;100.00;100940.72;6002338;28;20039;-66
2022/10/14 01:06:43;;;;;;;26.05;11.43;;;;;;;11.65;100.00;100956.03;6002501;28;20510;-66
2022/10/14 01:09:52;;;;;;;27.00;12.52;;;;;;;11.54;100.00;100946.44;6001677;28;20417;-66
2022/10/14 01:12:54;;;;;;;22.65;10.48;;;;;;;11.58;100.00;100944.28;6000308;28;20038;-66
2022/10/14 01:15:57;;;;;;;30.58;13.68;;;;;;;11.57;100.00;100943.50;6000684;28;20444;-66
2022/10/14 01:19:19;;;;;;;30.92;13.73;;;;;;;11.54;100.00;100943.78;6017011;28;20109;-65
2022/10/14 01:22:31;;;;;;;31.73;13.68;;;;;;;11.56;100.00;100936.50;6001217;28;20027;-65
2022/10/14 01:25:42;;;;;;;37.60;16.33;;;;;;;11.51;100.00;100933.44;5992456;28;20438;-65
2022/10/14 01:29:02;;;;;;;30.70;14.38;;;;;;;11.52;100.00;100929.81;6000223;28;20047;-65
2022/10/14 01:32:06;;;;;;;36.78;15.10;;;;;;;11.58;100.00;100942.47;6016197;28;20035;-65
2022/10/14 01:35:10;;;;;;;31.17;13.68;;;;;;;11.62;100.00;100938.56;5999949;28;20034;-66
2022/10/14 01:38:23;;;;;;;33.88;13.75;;;;;;;11.54;100.00;100927.84;6000052;28;20082;-66
2022/10/14 01:41:25;;;;;;;32.38;14.23;;;;;;;11.52;100.00;100919.19;5999444;28;20031;-66
2022/10/14 01:44:22;;;;;;;35.70;14.65;;;;;;;11.60;100.00;100937.03;5987595;28;20379;-66
2022/10/14 01:47:19;;;;;;;32.15;13.93;;;;;;;11.56;100.00;100914.41;6000819;28;20027;-66
2022/10/14 01:50:17;;;;;;;35.40;14.48;;;;;;;11.66;100.00;100931.97;5999704;28;20117;-66
2022/10/14 01:53:35;;;;;;;34.42;15.38;;;;;;;11.63;100.00;100923.47;5999489;28;20037;-66
2022/10/14 01:56:31;;;;;;;38.30;15.20;;;;;;;11.58;100.00;100921.22;6001052;28;20031;-65
2022/10/14 01:59:27;;;;;;;43.22;15.77;;;;;;;11.50;100.00;100899.03;5999524;28;20089;-65
2022/10/14 02:02:23;;;;;;;37.22;17.05;;;;;;;11.51;100.00;100908.69;6015637;28;20466;-65
2022/10/14 02:05:23;;;;;;;37.05;16.75;;;;;;;11.43;100.00;100896.16;6000931;28;20034;-65
2022/10/14 02:08:51;;;;;;;34.10;15.27;;;;;;;11.67;100.00;100916.88;6000237;28;20065;-66
2022/10/14 02:12:12;;;;;;;38.35;15.73;;;;;;;11.67;100.00;100919.53;6015065;28;20478;-65
2022/10/14 02:15:10;;;;;;;35.45;15.60;;;;;;;11.70;100.00;100916.59;6016108;28;20462;-66
2022/10/14 02:18:16;;;;;;;33.17;14.23;;;;;;;11.63;100.00;100905.69;6000575;28;20050;-66
2022/10/14 02:21:19;;;;;;;33.88;14.93;;;;;;;11.68;100.00;100903.44;6015001;28;20450;-66
2022/10/14 02:24:19;;;;;;;37.63;15.27;;;;;;;11.73;100.00;100922.47;6000452;28;20122;-66
2022/10/14 02:27:17;;;;;;;33.45;14.25;;;;;;;11.73;100.00;100924.28;5999819;28;20529;-66
2022/10/14 02:30:13;;;;;;;38.95;16.02;;;;;;;11.72;100.00;100915.47;5998581;28;20042;-66
2022/10/14 02:33:09;;;;;;;37.88;15.20;;;;;;;11.78;100.00;100924.66;5998731;28;20744;-66
2022/10/14 02:36:05;;;;;;;42.88;16.50;;;;;;;11.80;100.00;100917.38;5999020;28;20042;-66
2022/10/14 02:39:01;;;;;;;38.20;15.48;;;;;;;11.79;100.00;100908.59;5999898;28;20041;-66
2022/10/14 02:41:57;;;;;;;37.28;15.77;;;;;;;11.76;100.00;100911.53;5999626;28;20034;-66
2022/10/14 02:44:54;;;;;;;43.25;16.30;;;;;;;11.64;100.00;100891.44;5999730;28;20197;-66
2022/10/14 02:47:49;;;;;;;42.95;17.63;;;;;;;11.64;100.00;100899.41;5999921;28;20171;-66
2022/10/14 02:50:44;;;;;;;41.30;16.47;;;;;;;11.68;100.00;100891.97;5999177;28;20034;-66
2022/10/14 02:53:40;;;;;;;43.05;16.17;;;;;;;11.63;100.00;100892.41;5997031;28;20034;-66
2022/10/14 02:56:35;;;;;;;42.97;16.83;;;;;;;11.71;100.00;100892.53;5993733;28;20031;-66
2022/10/14 02:59:30;;;;;;;47.40;17.07;;;;;;;11.65;100.00;100890.47;6000016;28;20043;-66
2022/10/14 03:02:26;;;;;;;47.15;16.40;;;;;;;11.73;100.00;100890.59;5999307;28;20065;-66
2022/10/14 03:05:21;;;;;;;40.57;17.00;;;;;;;11.76;100.00;100884.97;5999672;28;20129;-66
2022/10/14 03:08:17;;;;;;;40.28;17.25;;;;;;;11.76;100.00;100881.47;5999358;28;20027;-66
2022/10/14 03:11:12;;;;;;;43.47;16.43;;;;;;;11.76;100.00;100895.59;5999034;28;20045;-66
2022/10/14 03:14:07;;;;;;;36.97;16.07;;;;;;;11.77;100.00;100891.09;5999476;28;20378;-66
2022/10/14 03:17:02;;;;;;;43.57;16.10;;;;;;;11.80;100.00;100882.84;5998862;28;20069;-66
2022/10/14 03:19:58;;;;;;;39.37;15.40;;;;;;;11.75;100.00;100877.97;5999393;28;20031;-66
2022/10/14 03:22:54;;;;;;;32.63;13.77;;;;;;;11.77;100.00;100877.81;5998727;28;20037;-66
2022/10/14 03:25:50;;;;;;;39.08;14.48;;;;;;;11.71;100.00;100852.69;5999469;28;20030;-66
2022/10/14 03:28:45;;;;;;;30.63;13.18;;;;;;;11.77;100.00;100865.38;5999260;28;20053;-66
2022/10/14 03:31:40;;;;;;;31.23;14.43;;;;;;;11.78;100.00;100866.22;5998340;28;20030;-66
2022/10/14 03:34:36;;;;;;;38.10;15.33;;;;;;;11.76;100.00;100869.03;5998928;28;20333;-66
2022/10/14 03:37:31;;;;;;;35.07;15.87;;;;;;;11.84;100.00;100882.41;5998481;28;20467;-66
2022/10/14 03:40:26;;;;;;;35.47;12.50;;;;;;;11.85;100.00;100878.75;5997694;28;20039;-66
2022/10/14 03:43:22;;;;;;;36.07;13.80;;;;;;;11.87;100.00;100882.09;5999056;28;20290;-66
2022/10/14 03:46:17;;;;;;;36.10;13.50;;;;;;;11.90;100.00;100883.63;5998531;28;20118;-66
2022/10/14 03:49:13;;;;;;;31.67;14.40;;;;;;;11.93;100.00;100870.84;5999050;28;21079;-66
2022/10/14 03:52:08;;;;;;;30.27;13.43;;;;;;;11.89;100.00;100869.50;5997926;28;20467;-66
2022/10/14 03:55:04;;;;;;;27.77;12.25;;;;;;;11.99;100.00;100879.22;5998686;28;20146;-66
2022/10/14 03:57:59;;;;;;;29.55;12.77;;;;;;;11.96;100.00;100879.53;5998208;28;20039;-66
2022/10/14 04:00:55;;;;;;;34.10;14.77;;;;;;;11.88;100.00;100862.50;5997238;28;20410;-66
2022/10/14 04:03:50;;;;;;;27.80;12.50;;;;;;;11.99;100.00;100873.88;5998820;28;20109;-67
2022/10/14 04:06:46;;;;;;;28.17;12.48;;;;;;;11.97;100.00;100865.25;5998400;28;20035;-66
2022/10/14 04:09:41;;;;;;;31.90;13.18;;;;;;;11.92;100.00;100861.22;5997152;28;20058;-66
2022/10/14 04:12:38;;;;;;;28.23;14.03;;;;;;;12.01;100.00;100866.63;5998254;28;20093;-66
2022/10/14 04:15:35;;;;;;;30.67;12.30;;;;;;;12.05;100.00;100878.59;5998755;28;20788;-66
2022/10/14 04:18:30;;;;;;;27.42;12.27;;;;;;;12.07;100.00;100877.47;5998673;28;20467;-66
2022/10/14 04:21:26;;;;;;;33.00;13.37;;;;;;;12.00;100.00;100863.13;5997718;28;20092;-66
2022/10/14 04:24:21;;;;;;;25.20;12.55;;;;;;;11.94;100.00;100861.91;5998712;28;20074;-66
2022/10/14 04:27:17;;;;;;;30.87;13.33;;;;;;;11.96;100.00;100860.94;5998139;28;20098;-66
2022/10/14 04:30:12;;;;;;;27.77;12.00;;;;;;;11.93;100.00;100862.88;5997560;28;20082;-66
2022/10/14 04:33:08;;;;;;;29.85;12.70;;;;;;;11.89;100.00;100858.03;5998408;28;20147;-66
2022/10/14 04:36:05;;;;;;;25.95;12.40;;;;;;;11.85;100.00;100860.16;5997750;28;20030;-66
2022/10/14 04:39:00;;;;;;;27.00;11.45;;;;;;;11.86;100.00;100853.84;5998162;28;20038;-66
2022/10/14 04:41:55;;;;;;;26.93;12.33;;;;;;;11.96;100.00;100868.91;5997650;28;20030;-66
2022/10/14 04:44:51;;;;;;;25.60;11.83;;;;;;;12.00;100.00;100856.97;5998795;28;20062;-66
2022/10/14 04:47:46;;;;;;;26.52;11.20;;;;;;;12.06;100.00;100859.03;5998531;28;20297;-66
2022/10/14 04:50:41;;;;;;;25.13;11.53;;;;;;;11.90;100.00;100855.22;5998695;28;20718;-67
2022/10/14 04:53:37;;;;;;;28.13;12.37;;;;;;;11.85;100.00;100846.84;6002284;28;20556;-66
2022/10/14 04:56:32;;;;;;;32.20;14.10;;;;;;;11.87;100.00;100839.59;5998358;28;20089;-66
2022/10/14 04:59:28;;;;;;;35.17;14.30;;;;;;;11.78;100.00;100832.50;5994202;28;20043;-66
2022/10/14 05:02:23;;;;;;;33.17;12.75;;;;;;;11.74;100.00;100838.28;6002466;28;20314;-67
2022/10/14 05:05:18;;;;;;;29.07;12.43;;;;;;;11.72;100.00;100850.88;6002333;28;20038;-66
2022/10/14 05:08:14;;;;;;;29.10;13.60;;;;;;;11.78;100.00;100860.91;6002534;28;20027;-67
2022/10/14 05:11:09;;;;;;;27.30;12.00;;;;;;;11.75;100.00;100851.41;6001647;28;20030;-66
2022/10/14 05:14:04;;;;;;;30.57;11.73;;;;;;;11.75;100.00;100850.56;6002016;28;20137;-67
2022/10/14 05:17:00;;;;;;;23.50;11.00;;;;;;;11.78;100.00;100856.44;6002264;28;20049;-66
2022/10/14 05:19:55;;;;;;;28.08;13.15;;;;;;;11.68;100.00;100837.03;6001703;28;20700;-66
2022/10/14 05:22:51;;;;;;;23.57;12.20;;;;;;;11.71;100.00;100852.69;6001674;28;20525;-66
2022/10/14 05:25:47;;;;;;;25.92;11.00;;;;;;;11.74;100.00;100855.03;6001236;28;20035;-64
2022/10/14 05:28:42;;;;;;;24.23;11.05;;;;;;;11.75;100.00;100861.19;6001890;28;20295;-65
2022/10/14 05:31:37;;;;;;;22.90;9.90;;;;;;;11.73;100.00;100844.56;6001097;28;20123;-65
2022/10/14 05:34:34;;;;;;;26.90;11.93;;;;;;;11.82;100.00;100852.47;6000960;28;20034;-64
2022/10/14 05:37:30;;;;;;;24.17;11.25;;;;;;;11.85;100.00;100852.16;6001398;28;20039;-64
2022/10/14 05:40:25;;;;;;;25.88;11.50;;;;;;;11.82;100.00;100839.19;6000508;28;20042;-67
2022/10/14 05:43:21;;;;;;;28.13;12.18;;;;;;;11.84;100.00;100839.06;6000773;28;20035;-64
2022/10/14 05:46:16;;;;;;;27.20;11.82;;;;;;;11.87;100.00;100836.94;6000609;28;20054;-67
2022/10/14 05:49:12;;;;;;;29.33;12.53;;;;;;;11.92;100.00;100847.94;6000833;28;20539;-67
2022/10/14 05:52:07;;;;;;;29.83;12.07;;;;;;;11.84;100.00;100837.22;5999745;28;20054;-66
2022/10/14 05:55:02;;;;;;;26.93;11.77;;;;;;;11.86;100.00;100832.59;6000542;28;20768;-66
2022/10/14 05:57:58;;;;;;;26.52;11.95;;;;;;;12.01;100.00;100846.19;5999832;28;20289;-66
2022/10/14 06:00:57;;;;;;;27.63;11.77;;;;;;;11.87;100.00;100836.94;5999789;28;20058;-66
2022/10/14 06:03:52;;;;;;;31.73;12.90;;;;;;;11.89;100.00;100848.25;6000091;28;20042;-66
2022/10/14 06:06:48;;;;;;;28.47;13.03;;;;;;;11.76;100.00;100831.84;6000827;28;20030;-66
2022/10/14 06:09:43;;;;;;;30.73;11.93;;;;;;;11.87;100.00;100842.25;5999522;28;20035;-67
2022/10/14 06:12:39;;;;;;;27.48;12.70;;;;;;;11.90;100.00;100849.09;5999925;28;20116;-66
2022/10/14 06:15:35;;;;;;;27.67;11.67;;;;;;;11.94;100.00;100856.59;6001114;28;20035;-66
2022/10/14 06:18:30;;;;;;;32.03;12.00;;;;;;;11.87;100.00;100850.22;6000164;28;20286;-66
2022/10/14 06:21:26;;;;;;;28.98;13.05;;;;;;;11.93;100.00;100854.91;5999146;28;20379;-66
2022/10/14 06:24:21;;;;;;;24.42;11.77;;;;;;;12.05;100.00;100863.50;6000364;28;20506;-66
2022/10/14 06:27:17;;;;;;;26.67;11.40;;;;;;;12.04;100.00;100855.69;6000267;28;20042;-66
2022/10/14 06:30:12;;;;;;;24.08;9.90;;;;;;;11.99;100.00;100855.28;5999691;28;20046;-66
2022/10/14 06:33:07;;;;;;;23.67;10.90;;;;;;;12.04;100.00;100855.69;5999858;28;20056;-66
2022/10/14 06:36:04;;;;;;;21.60;10.40;;;;;;;12.09;100.00;100848.09;6000180;28;20387;-66
2022/10/14 06:38:59;;;;;;;24.92;10.25;;;;;;;12.14;100.00;100837.84;5999815;28;20067;-66
2022/10/14 06:41:55;;;;;;;29.52;11.65;;;;;;;12.20;100.00;100845.19;5999902;28;20026;-66
2022/10/14 06:44:50;;;;;;;20.10;9.53;;;;;;;12.25;100.00;100853.56;5999786;28;20136;-66
2022/10/14 06:47:46;;;;;;;24.77;10.53;;;;;;;12.26;100.00;100839.25;6000245;28;20030;-66
2022/10/14 06:50:41;;;;;;;20.88;10.38;;;;;;;12.31;100.00;100847.63;5999152;28;20054;-66
2022/10/14 06:53:36;;;;;;;28.60;11.57;;;;;;;12.42;100.00;100847.34;5999800;28;20035;-66
2022/10/14 06:56:33;;;;;;;23.93;10.40;;;;;;;12.44;100.00;100842.75;6000076;28;20038;-66
2022/10/14 06:59:28;;;;;;;26.55;12.05;;;;;;;12.30;100.00;100832.66;5999407;28;20363;-67
2022/10/14 07:02:23;;;;;;;25.97;11.10;;;;;;;12.39;100.00;100834.41;5999385;28;20359;-66
2022/10/14 07:05:19;;;;;;;24.53;10.63;;;;;;;12.41;100.00;100838.56;5999630;28;20031;-66
2022/10/14 07:08:14;;;;;;;21.60;9.93;;;;;;;12.44;100.00;100840.91;5998945;28;20054;-66
2022/10/14 07:11:09;;;;;;;24.47;10.33;;;;;;;12.47;100.00;100847.75;5998887;28;20117;-66
2022/10/14 07:14:05;;;;;;;21.50;9.53;;;;;;;12.50;100.00;100836.81;5998042;28;20773;-66
2022/10/14 07:17:00;;;;;;;21.30;10.13;;;;;;;12.62;100.00;100840.88;5999371;28;20478;-66
2022/10/14 07:19:56;;;;;;;20.27;10.00;;;;;;;12.64;100.00;100848.72;5998933;28;20031;-66
2022/10/14 07:22:55;;;;;;;21.92;9.95;;;;;;;12.74;100.00;100839.63;5998059;28;20034;-66
2022/10/14 07:25:50;;;;;;;21.13;10.48;;;;;;;12.77;100.00;100852.63;5999387;28;20395;-66
2022/10/14 07:28:45;;;;;;;21.13;9.70;;;;;;;12.87;100.00;100866.66;5998836;28;20035;-67
2022/10/14 07:31:41;;;;;;;21.63;10.87;;;;;;;12.83;100.00;100848.47;5998579;28;20058;-66
2022/10/14 07:34:36;;;;;;;21.53;11.60;;;;;;;12.97;100.00;100864.72;5991701;28;20654;-67
2022/10/14 07:37:31;;;;;;;19.77;9.43;;;;;;;13.00;100.00;100845.75;5998803;28;20286;-66
2022/10/14 07:40:27;;;;;;;23.53;9.43;;;;;;;13.23;100.00;100861.22;5998135;28;20034;-67
2022/10/14 07:43:22;;;;;;;15.77;8.35;;;;;;;13.11;100.00;100848.19;5998368;28;20029;-67
2022/10/14 07:46:28;;;;;;;20.30;9.47;;;;;;;12.92;100.00;100843.06;5998947;28;20082;-67
2022/10/14 07:49:23;;;;;;;23.73;9.68;;;;;;;13.13;100.00;100848.84;5998874;28;20037;-66
2022/10/14 07:52:18;;;;;;;21.60;9.20;;;;;;;13.36;100.00;100848.28;5998755;28;20035;-66
2022/10/14 07:55:14;;;;;;;18.90;9.10;;;;;;;13.42;100.00;100845.81;5999139;28;20038;-66
2022/10/14 07:58:09;;;;;;;19.53;9.33;;;;;;;13.56;99.12;100852.38;5998170;28;20031;-67
2022/10/14 08:01:04;;;;;;;15.93;7.80;;;;;;;13.69;99.25;100860.72;5998374;28;20262;-67
2022/10/14 08:04:00;;;;;;;18.30;8.82;;;;;;;13.61;98.50;100845.56;5998446;28;20102;-67
2022/10/14 08:06:55;;;;;;;18.83;8.23;;;;;;;14.01;96.57;100847.47;5999005;28;20037;-67
2022/10/14 08:09:52;;;;;;;16.03;7.87;;;;;;;14.22;94.48;100866.47;5998454;28;20114;-67
2022/10/14 08:12:47;;;;;;;20.50;8.50;;;;;;;14.29;94.22;100861.31;5997842;28;20035;-67
2022/10/14 08:15:43;;;;;;;18.00;8.33;;;;;;;14.37;93.80;100852.50;5998890;28;20493;-67
2022/10/14 08:18:38;;;;;;;19.17;8.88;;;;;;;14.72;92.47;100852.16;5998451;28;20058;-67
2022/10/14 08:21:34;;;;;;;18.95;8.55;;;;;;;14.39;93.04;100850.50;5998380;28;20442;-67
2022/10/14 08:24:29;;;;;;;20.57;8.30;;;;;;;14.54;92.93;100864.88;5998507;28;20031;-67
2022/10/14 08:27:25;;;;;;;18.87;8.33;;;;;;;14.57;90.88;100859.16;6002172;28;20274;-67
2022/10/14 08:30:21;;;;;;;19.45;8.45;;;;;;;14.58;90.74;100850.16;6002758;28;20038;-66
2022/10/14 08:33:16;;;;;;;19.55;9.55;;;;;;;14.46;93.03;100851.53;6002888;28;20043;-67
2022/10/14 08:36:12;;;;;;;19.10;9.03;;;;;;;14.54;92.27;100843.50;6003568;28;20534;-67
2022/10/14 08:39:07;;;;;;;20.70;9.10;;;;;;;14.69;90.75;100845.31;6003029;28;20027;-67
2022/10/14 08:42:19;;;;;;;20.33;9.20;;;;;;;14.52;91.24;100842.81;6002312;28;20034;-67
2022/10/14 08:45:25;;;;;;;21.67;9.73;;;;;;;14.42;92.02;100851.00;6017702;28;20370;-67
2022/10/14 08:48:24;;;;;;;18.38;8.82;;;;;;;14.55;91.98;100845.16;6002320;28;20474;-67
2022/10/14 08:51:19;;;;;;;20.73;11.50;;;;;;;14.12;92.89;100833.81;6001006;28;20053;-67
2022/10/14 08:54:34;;;;;;;17.05;8.75;;;;;;;14.23;93.17;100825.47;6002593;28;20038;-67
2022/10/14 08:57:42;;;;;;;20.25;8.82;;;;;;;14.35;92.90;100839.31;6000038;28;20073;-67
2022/10/14 09:00:40;;;;;;;21.48;9.65;;;;;;;14.38;93.24;100830.19;6017015;28;20049;-67
2022/10/14 09:03:35;;;;;;;44.83;20.08;;;;;;;14.64;92.35;100817.47;6002980;28;20037;-67
2022/10/14 09:06:33;;;;;;;18.80;9.00;;;;;;;14.77;90.17;100823.09;6002303;28;20026;-67
2022/10/14 09:09:39;;;;;;;19.25;9.95;;;;;;;14.94;88.69;100826.56;6001900;28;20031;-66
2022/10/14 09:12:35;;;;;;;20.95;8.85;;;;;;;14.82;88.11;100804.72;6016451;28;20039;-67
2022/10/14 09:15:39;;;;;;;17.05;8.55;;;;;;;14.85;88.89;100801.72;6000467;28;20038;-67
2022/10/14 09:18:37;;;;;;;17.13;8.68;;;;;;;15.37;87.08;100808.22;6000711;28;20039;-66
2022/10/14 09:21:38;;;;;;;15.77;7.15;;;;;;;15.27;86.01;100793.41;5986558;28;20043;-67
2022/10/14 09:24:34;;;;;;;17.50;8.38;;;;;;;15.24;86.22;100799.09;6002191;28;20043;-67
2022/10/14 09:27:29;;;;;;;16.23;7.32;;;;;;;15.36;84.96;100793.16;6000435;28;20031;-66
2022/10/14 09:30:35;;;;;;;16.35;7.13;;;;;;;15.07;85.54;100798.31;5999542;28;20046;-67
2022/10/14 09:33:33;;;;;;;15.32;7.25;;;;;;;15.45;85.94;100801.97;6001296;28;20051;-67
2022/10/14 09:36:28;;;;;;;15.25;7.25;;;;;;;15.70;83.26;100808.06;6001130;28;20058;-67
2022/10/14 09:39:23;;;;;;;13.00;5.83;;;;;;;16.04;81.72;100805.78;6000448;28;20085;-67
2022/10/14 09:42:23;;;;;;;10.23;4.90;;;;;;;16.18;80.73;100799.66;6000888;28;20290;-67
2022/10/14 09:45:23;;;;;;;12.55;6.07;;;;;;;16.22;80.35;100797.47;6000165;28;20325;-67
2022/10/14 09:48:27;;;;;;;10.40;5.20;;;;;;;16.05;81.40;100804.78;6001185;28;20042;-67
2022/10/14 09:51:26;;;;;;;12.73;5.50;;;;;;;16.12;81.54;100811.09;6000800;28;20104;-67
2022/10/14 09:54:27;;;;;;;12.38;4.90;;;;;;;15.98;81.10;100799.31;5999452;28;20030;-67
2022/10/14 09:57:23;;;;;;;9.63;4.15;;;;;;;15.67;81.01;100787.84;5999878;28;20742;-67
2022/10/14 10:00:27;;;;;;;7.47;3.53;;;;;;;15.51;82.13;100808.50;5998626;28;20031;-67
2022/10/14 10:03:33;;;;;;;6.47;3.38;;;;;;;15.37;83.28;100794.00;5999291;28;20740;-67
2022/10/14 10:06:29;;;;;;;6.40;3.45;;;;;;;15.30;83.00;100787.72;5999509;28;20375;-67
2022/10/14 10:09:25;;;;;;;6.87;3.67;;;;;;;15.12;83.25;100779.94;6000595;28;20070;-67
2022/10/14 10:12:23;;;;;;;6.90;3.10;;;;;;;14.95;83.68;100772.16;5992484;28;20031;-67
2022/10/14 10:15:20;;;;;;;8.07;3.60;;;;;;;15.00;83.67;100777.81;6000907;28;20117;-67
2022/10/14 10:18:18;;;;;;;6.15;3.10;;;;;;;15.07;83.34;100763.59;6000937;28;20093;-67
2022/10/14 10:21:23;;;;;;;6.32;3.95;;;;;;;15.24;81.90;100757.19;6000265;28;20434;-67
2022/10/14 10:24:22;;;;;;;6.53;3.10;;;;;;;15.42;82.05;100760.41;5997934;28;20033;-67
2022/10/14 10:27:24;;;;;;;5.97;3.13;;;;;;;15.59;81.81;100761.16;6000797;28;20038;-67
2022/10/14 10:30:26;;;;;;;4.07;2.58;;;;;;;15.76;80.44;100743.19;5998466;28;20429;-67
2022/10/14 10:33:39;;;;;;;6.38;2.80;;;;;;;15.92;79.42;100756.41;6000556;28;20030;-67
2022/10/14 10:36:40;;;;;;;6.95;3.10;;;;;;;16.24;78.25;100745.44;5999304;28;20114;-68
2022/10/14 10:39:45;;;;;;;4.45;2.40;;;;;;;16.81;75.33;100750.22;6000634;28;20027;-67
2022/10/14 10:43:07;;;;;;;8.80;2.42;;;;;;;17.15;74.68;100753.13;5999118;28;20034;-68
2022/10/14 10:46:12;;;;;;;6.65;2.75;;;;;;;17.16;73.37;100741.38;6015352;28;20054;-67
2022/10/14 10:49:37;;;;;;;4.85;2.22;;;;;;;16.50;75.45;100745.00;5998409;28;20379;-67
2022/10/14 10:52:47;;;;;;;4.57;2.30;;;;;;;16.60;74.19;100727.66;5998515;28;20070;-67
2022/10/14 10:56:08;;;;;;;4.18;2.10;;;;;;;16.60;74.86;100729.53;5986815;28;20457;-68
2022/10/14 10:59:20;;;;;;;3.97;1.85;;;;;;;16.96;74.03;100700.94;5998561;28;20050;-67
2022/10/14 11:02:21;;;;;;;5.30;1.90;;;;;;;17.29;72.58;100728.13;5987878;28;20022;-67
2022/10/14 11:05:22;;;;;;;5.78;2.03;;;;;;;17.12;72.35;100718.69;5999854;28;20043;-67
2022/10/14 11:12:09;;;;;;;7.25;2.40;;;;;;;16.53;75.10;100712.53;5999003;28;20399;-67
2022/10/14 11:15:16;;;;;;;3.92;2.30;;;;;;;16.40;75.03;100696.25;6012611;28;20035;-68
2022/10/14 11:18:25;;;;;;;4.07;2.15;;;;;;;16.27;76.76;100707.59;5997845;28;20034;-67
2022/10/14 11:21:34;;;;;;;4.70;2.33;;;;;;;16.44;75.77;100705.59;5999213;28;20035;-67
2022/10/14 11:24:47;;;;;;;5.32;2.17;;;;;;;16.33;75.24;100704.19;5998201;28;20043;-67
2022/10/14 11:28:14;;;;;;;3.50;2.00;;;;;;;16.34;76.67;100702.34;6011327;28;20335;-67
2022/10/14 11:31:39;;;;;;;3.30;1.33;;;;;;;16.63;75.36;100697.84;5996379;28;20040;-67
2022/10/14 11:34:56;;;;;;;6.43;1.70;;;;;;;16.61;74.73;100696.38;5997356;28;20193;-67
2022/10/14 11:38:10;;;;;;;4.20;1.40;;;;;;;16.75;74.06;100684.81;5986024;28;20041;-68
2022/10/14 11:41:16;;;;;;;3.28;1.67;;;;;;;16.67;74.99;100693.78;5996160;28;20035;-67
2022/10/14 11:44:27;;;;;;;2.63;1.20;;;;;;;16.79;73.09;100685.28;5998990;28;20057;-67
2022/10/14 11:47:25;;;;;;;3.60;1.77;;;;;;;17.00;72.48;100666.56;5998744;28;20031;-67
2022/10/14 11:50:28;;;;;;;4.05;1.80;;;;;;;16.81;73.44;100673.38;5997243;28;20067;-67
2022/10/14 11:53:38;;;;;;;2.97;1.60;;;;;;;17.14;71.76;100673.75;6013394;28;20027;-67
2022/10/14 11:56:40;;;;;;;3.30;1.67;;;;;;;16.85;73.00;100673.84;6014127;28;20042;-67
2022/10/14 12:03:17;;;;;;;3.03;1.65;;;;;;;16.77;73.50;100655.19;5997156;28;20031;-67
2022/10/14 12:06:18;;;;;;;1.95;1.20;;;;;;;16.70;73.27;100656.94;5998663;28;20038;-68
2022/10/14 12:09:24;;;;;;;2.67;1.40;;;;;;;16.84;72.74;100651.56;6013354;28;20043;-67
2022/10/14 12:12:21;;;;;;;2.38;1.40;;;;;;;17.06;72.79;100645.22;5989622;28;20599;-67
2022/10/14 12:15:20;;;;;;;2.65;1.50;;;;;;;16.91;72.96;100631.03;5998774;28;20074;-67
2022/10/14 12:18:15;;;;;;;3.03;1.58;;;;;;;17.10;72.72;100632.25;5997019;28;20057;-67
2022/10/14 12:21:29;;;;;;;6.30;1.80;;;;;;;16.85;72.68;100642.50;5998085;28;20039;-66
2022/10/14 12:24:29;;;;;;;3.10;1.45;;;;;;;17.10;71.58;100638.47;5998010;28;20282;-67
2022/10/14 12:27:26;;;;;;;3.10;1.40;;;;;;;16.87;73.12;100645.84;6013504;28;20076;-67
2022/10/14 12:30:39;;;;;;;3.22;1.60;;;;;;;16.72;74.17;100639.66;5996533;28;20479;-67
2022/10/14 12:34:09;;;;;;;2.85;1.40;;;;;;;16.99;73.73;100644.31;5998560;28;20042;-67
2022/10/14 12:37:22;;;;;;;4.90;1.67;;;;;;;17.12;72.76;100643.66;5998346;28;20147;-67
2022/10/14 12:40:23;;;;;;;2.40;1.15;;;;;;;16.95;73.36;100636.84;5998085;28;20035;-67
2022/10/14 12:43:26;;;;;;;2.45;1.17;;;;;;;16.93;72.71;100644.25;5998191;28;20034;-67
2022/10/14 12:46:21;;;;;;;5.78;1.40;;;;;;;16.69;73.59;100639.22;5998502;28;20030;-66
2022/10/14 12:49:28;;;;;;;2.23;1.17;;;;;;;16.88;73.72;100647.47;5998188;28;20130;-67
2022/10/14 12:52:30;;;;;;;1.55;1.02;;;;;;;16.95;72.44;100626.13;5996846;28;20478;-66
2022/10/14 12:55:26;;;;;;;2.03;1.00;;;;;;;17.02;72.01;100632.38;5997151;28;20031;-67
2022/10/14 12:58:27;;;;;;;2.53;1.30;;;;;;;16.73;72.86;100637.81;5996710;28;20061;-67
2022/10/14 13:01:23;;;;;;;1.52;0.90;;;;;;;16.69;73.68;100626.63;5996750;28;20042;-66
2022/10/14 13:04:18;;;;;;;2.85;1.30;;;;;;;16.67;73.35;100629.53;5996385;28;20046;-67
2022/10/14 13:07:16;;;;;;;1.92;1.10;;;;;;;16.71;74.11;100634.50;5998507;28;20121;-67
2022/10/14 13:10:36;;;;;;;1.75;1.05;;;;;;;16.59;74.33;100628.78;5996729;28;20085;-67
2022/10/14 13:13:38;;;;;;;3.30;1.25;;;;;;;16.51;75.47;100627.03;5988255;28;20533;-67
2022/10/14 13:16:34;;;;;;;2.25;1.10;;;;;;;16.63;74.86;100628.22;5999464;28;20334;-67
2022/10/14 13:19:32;;;;;;;1.77;1.10;;;;;;;16.66;74.99;100621.66;5999312;28;20031;-67
2022/10/14 13:22:27;;;;;;;1.58;0.88;;;;;;;16.67;74.30;100624.16;5998806;28;20035;-66
2022/10/14 13:25:30;;;;;;;2.13;1.23;;;;;;;16.63;73.87;100606.00;5998747;28;20050;-67
2022/10/14 13:28:35;;;;;;;2.92;0.93;;;;;;;16.70;74.18;100600.69;5999403;28;20037;-67
2022/10/14 13:31:52;;;;;;;2.33;1.30;;;;;;;16.75;73.94;100598.28;5985959;28;20426;-67
2022/10/14 13:34:58;;;;;;;4.38;3.47;;;;;;;16.74;73.40;100591.28;5999216;28;20039;-67
2022/10/14 13:38:03;;;;;;;1.65;0.90;;;;;;;16.58;73.42;100579.75;5998545;28;20037;-67
2022/10/14 13:40:59;;;;;;;1.88;1.10;;;;;;;16.52;73.97;100577.00;6008667;28;20081;-67
2022/10/14 13:43:55;;;;;;;1.90;0.93;;;;;;;16.44;73.74;100582.44;5997607;28;20026;-67